Sir Seewoosagur Ramgoolam International Airport

FIMP · Grand Port, 毛里求斯

METAR FIMP · 西沃萨古尔·拉姆古兰爵士国际机场

19 四月 19:00 LT
33m
罗盘
风向 的 风向 100° 西沃萨古尔·拉姆古兰爵士国际机场 14/32
风: 13 kt, 4 beaufort

12 kt

4 kt
改变
0 ft 6.000 12.000 18.000 24.000 30.000
Cloud Cloud Cloud Cloud
SCT 1.600
Cloud Cloud Cloud Cloud Cloud Cloud
BKN 25.000
METAR FIMP 191500Z 10013KT 9999 SCT016 BKN250 26/19 Q1015

METAR 西沃萨古尔·拉姆古兰爵士国际机场 - FIMP/MRU

西沃萨古尔·拉姆古兰爵士国际机场是,毛里求斯中的大型机场。 该机场位于纬度-20,43020和经度57,68360。 该机场有一条跑道: 14/32. 本场的ICAO机场代码为FIMP。 该机场的IATA代码为MRU。 机场在Mauritius FIR中。

该航空气象观测是针对西沃萨古尔·拉姆古兰爵士国际机场在2024年4月19日 19:00, 当地时间进行的。

机场观察

风向为100°,速度为13 kt。

可见度为10 km 或者更多。

有疏云,零星散落的云朵在1.600 ft的高度 和 碎云在25.000 ft的高度。 破损或更高的上限为25.000 ft。

温度和风寒是26 °C。 露点为19 °C,相对湿度为65%。 海平面上的气压为1015 hPa (QNH)。

白天

今天,太阳从06:21升起,在17:54降落。 这适用于西沃萨古尔·拉姆古兰爵士国际机场,世界夏令时可能有所不同。 当地时间与世界标准时间之间的时差为+4 小时。 夏令时目前正在进行中。

公司介绍

我们没有关于这个机场的公司信息。

体会

到Vliegles.nl去找飞行课程,跳伞和其他飞行体验。 浏览页面,了解西沃萨古尔·拉姆古兰爵士国际机场附近所有可用的活动。 你也可以使用搜索功能来寻找你所在地附近的特定飞行课程、跳伞或其他飞行体验。

跑道

Id 标题 侧风 逆风 侧风 %
14/32 117°-297° 4 kt 12 kt 29 %

逆风成分最大的方向会被突出显示,并用于横风计算。 这并不一定意味着这个方向在使用。

乌云

1.600 ft SCT 疏云,零星散落的云朵
25.000 ft BKN 碎云

温度 & 天气

温度 26 °C
露点 19 °C
相对湿度 65%
Kp-index 4 (0-9)

白天

日出
06:21 (10:49)
中午
12:08
日落
17:54

小工具

你想在你的网站上有一个关于西沃萨古尔·拉姆古兰爵士国际机场的当前航空天气(METAR)的小部件吗?

显示HTML代码
报告变更